Time;durP1;ratioP1;P1;durP2;ratioP2;P2;SDS_P1;SDS_P2;PMS_P1;PMS_P2;Temp;Humidity;BMP_temperature;BMP_pressure;BME280_temperature;BME280_humidity;BME280_pressure;Samples;Min_cycle;Max_cycle;Signal;HPM_P1;HPM_P2
2022/12/12 00:02:20;;;;;;;43.50;25.43;;;;;;;;;;5086192;28;20231;-78
2022/12/12 00:04:47;;;;;;;40.93;23.67;;;;;;;;;;5089503;28;20257;-78
2022/12/12 00:07:15;;;;;;;37.43;23.00;;;;;;;;;;5077654;28;20303;-77
2022/12/12 00:09:42;;;;;;;40.40;24.10;;;;;;;;;;5086580;28;20195;-78
2022/12/12 00:12:10;;;;;;;40.73;23.53;;;;;;;;;;5088219;28;20666;-77
2022/12/12 00:14:38;;;;;;;45.20;23.87;;;;;;;;;;5084389;28;20226;-78
2022/12/12 00:17:05;;;;;;;41.57;23.30;;;;;;;;;;5081870;28;20233;-78
2022/12/12 00:19:32;;;;;;;38.30;22.67;;;;;;;;;;5077434;28;20195;-77
2022/12/12 00:21:59;;;;;;;40.77;22.40;;;;;;;;;;5081990;28;20590;-78
2022/12/12 00:24:26;;;;;;;41.70;22.53;;;;;;;;;;5093586;28;20202;-78
2022/12/12 00:26:54;;;;;;;42.80;22.87;;;;;;;;;;5095299;28;20615;-78
2022/12/12 00:29:22;;;;;;;38.80;21.50;;;;;;;;;;5086439;28;20233;-78
2022/12/12 00:31:50;;;;;;;40.97;22.57;;;;;;;;;;5083207;28;20652;-78
2022/12/12 00:34:17;;;;;;;45.67;23.03;;;;;;;;;;5081213;28;20199;-78
2022/12/12 00:36:44;;;;;;;47.07;24.03;;;;;;;;;;5075824;28;20199;-78
2022/12/12 00:39:12;;;;;;;40.67;21.87;;;;;;;;;;5076943;28;20238;-77
2022/12/12 00:41:39;;;;;;;38.53;21.67;;;;;;;;;;5078847;28;20237;-77
2022/12/12 00:44:06;;;;;;;42.13;20.40;;;;;;;;;;5075730;28;20199;-77
2022/12/12 00:46:35;;;;;;;41.70;21.03;;;;;;;;;;5090426;28;20257;-77
2022/12/12 00:49:03;;;;;;;38.43;19.37;;;;;;;;;;5086710;28;20291;-77
2022/12/12 00:51:30;;;;;;;37.07;20.20;;;;;;;;;;5078884;28;20203;-78
2022/12/12 00:53:58;;;;;;;40.03;20.83;;;;;;;;;;5075699;28;20660;-78
2022/12/12 00:56:26;;;;;;;45.47;20.87;;;;;;;;;;5089523;28;20199;-77
2022/12/12 00:58:53;;;;;;;40.20;20.10;;;;;;;;;;5093434;28;20563;-78
2022/12/12 01:01:22;;;;;;;49.43;20.30;;;;;;;;;;5085589;28;20738;-77
2022/12/12 01:03:51;;;;;;;39.73;19.57;;;;;;;;;;5084604;28;20237;-77
2022/12/12 01:06:18;;;;;;;42.63;18.77;;;;;;;;;;5076836;28;20300;-78
2022/12/12 01:08:45;;;;;;;45.10;17.87;;;;;;;;;;5094321;28;20206;-78
2022/12/12 01:11:13;;;;;;;46.80;17.07;;;;;;;;;;5080131;28;20206;-78
2022/12/12 01:13:41;;;;;;;32.00;15.80;;;;;;;;;;5094459;28;20572;-78
2022/12/12 01:16:08;;;;;;;33.50;15.87;;;;;;;;;;5094856;28;20198;-77
2022/12/12 01:18:36;;;;;;;33.67;16.63;;;;;;;;;;5089898;28;20223;-77
2022/12/12 01:21:05;;;;;;;39.47;17.37;;;;;;;;;;5081304;28;20230;-78
2022/12/12 01:23:32;;;;;;;41.53;17.70;;;;;;;;;;5077138;28;20227;-77
2022/12/12 01:26:02;;;;;;;35.47;16.63;;;;;;;;;;5075928;28;20241;-77
2022/12/12 01:28:30;;;;;;;44.00;17.93;;;;;;;;;;5089443;28;20226;-77
2022/12/12 01:30:57;;;;;;;49.93;18.60;;;;;;;;;;5074025;28;20252;-77
2022/12/12 01:33:24;;;;;;;41.23;17.37;;;;;;;;;;5072995;28;20249;-77
2022/12/12 01:35:51;;;;;;;52.13;17.63;;;;;;;;;;5073414;28;20224;-77
2022/12/12 01:38:20;;;;;;;47.73;17.67;;;;;;;;;;5073260;28;20633;-78
2022/12/12 01:40:47;;;;;;;37.07;17.63;;;;;;;;;;5073098;28;20234;-77
2022/12/12 01:43:15;;;;;;;43.30;17.73;;;;;;;;;;5073441;28;20228;-77
2022/12/12 01:46:10;;;;;;;43.30;18.87;;;;;;;;;;5073758;28;20254;-77
2022/12/12 01:48:38;;;;;;;46.30;17.30;;;;;;;;;;5043427;28;20207;-78
2022/12/12 01:51:08;;;;;;;34.90;16.63;;;;;;;;;;5073724;28;20228;-77
2022/12/12 01:53:36;;;;;;;52.83;17.57;;;;;;;;;;5073312;28;20227;-78
2022/12/12 01:56:05;;;;;;;47.40;18.30;;;;;;;;;;5073231;28;20760;-77
2022/12/12 01:58:33;;;;;;;48.00;18.77;;;;;;;;;;5073462;28;20730;-77
2022/12/12 02:01:01;;;;;;;38.20;18.20;;;;;;;;;;5084609;28;20661;-77
2022/12/12 02:03:29;;;;;;;45.83;18.07;;;;;;;;;;5073152;28;20457;-78
2022/12/12 02:05:58;;;;;;;42.77;17.47;;;;;;;;;;5072422;28;20274;-77
2022/12/12 02:08:26;;;;;;;42.63;18.23;;;;;;;;;;5073097;28;20263;-78
2022/12/12 02:10:54;;;;;;;47.63;18.57;;;;;;;;;;5072202;28;20278;-77
2022/12/12 02:13:24;;;;;;;41.27;17.73;;;;;;;;;;5080031;28;20236;-77
2022/12/12 02:16:00;;;;;;;48.43;19.07;;;;;;;;;;5079663;28;20290;-78
2022/12/12 02:18:29;;;;;;;49.90;19.40;;;;;;;;;;5074971;28;20227;-77
2022/12/12 02:21:02;;;;;;;42.03;18.60;;;;;;;;;;5076971;28;20227;-78
2022/12/12 02:23:44;;;;;;;54.07;19.00;;;;;;;;;;5075210;28;20284;-78
2022/12/12 02:26:23;;;;;;;55.30;19.80;;;;;;;;;;5075861;28;20664;-78
2022/12/12 02:29:01;;;;;;;58.03;19.60;;;;;;;;;;5083270;28;20315;-78
2022/12/12 02:31:32;;;;;;;44.50;17.37;;;;;;;;;;5072091;28;20199;-78
2022/12/12 02:34:02;;;;;;;51.43;19.77;;;;;;;;;;5077351;28;20227;-78
2022/12/12 02:36:35;;;;;;;57.50;20.90;;;;;;;;;;5080925;28;20234;-78
2022/12/12 02:39:07;;;;;;;55.90;19.70;;;;;;;;;;5080455;28;20248;-78
2022/12/12 02:41:38;;;;;;;39.33;18.13;;;;;;;;;;5075951;28;20230;-77
2022/12/12 02:44:15;;;;;;;48.50;19.00;;;;;;;;;;5091857;28;20234;-77
2022/12/12 02:46:46;;;;;;;44.23;18.47;;;;;;;;;;5092695;28;20223;-78
2022/12/12 02:49:15;;;;;;;45.80;18.83;;;;;;;;;;5082647;28;20226;-78
2022/12/12 02:51:43;;;;;;;54.63;19.73;;;;;;;;;;5088850;28;20266;-78
2022/12/12 02:54:14;;;;;;;61.20;19.47;;;;;;;;;;5091514;28;20239;-77
2022/12/12 02:56:46;;;;;;;54.53;19.80;;;;;;;;;;5072140;28;20191;-78
2022/12/12 02:59:17;;;;;;;47.60;18.43;;;;;;;;;;5071292;28;20679;-77
2022/12/12 03:01:49;;;;;;;53.30;19.43;;;;;;;;;;5072334;28;20239;-78
2022/12/12 03:10:00;;;;;;;66.77;17.97;;;;;;;;;;5092182;28;20193;-77
2022/12/12 03:12:30;;;;;;;54.13;19.10;;;;;;;;;;5088289;28;20229;-77
2022/12/12 03:15:01;;;;;;;99.73;19.43;;;;;;;;;;5072389;28;20198;-77
2022/12/12 03:17:34;;;;;;;49.30;18.57;;;;;;;;;;5070818;28;20249;-77
2022/12/12 03:20:07;;;;;;;52.77;17.67;;;;;;;;;;5071900;28;20214;-77
2022/12/12 03:22:38;;;;;;;53.90;17.83;;;;;;;;;;5071572;28;20246;-77
2022/12/12 03:25:08;;;;;;;67.07;20.37;;;;;;;;;;5072199;28;20231;-77
2022/12/12 03:27:38;;;;;;;53.90;19.90;;;;;;;;;;5072122;28;20199;-77
2022/12/12 03:30:06;;;;;;;67.43;20.53;;;;;;;;;;5071931;28;20232;-78
2022/12/12 03:32:37;;;;;;;54.00;18.47;;;;;;;;;;5072126;28;20205;-78
2022/12/12 03:35:09;;;;;;;80.23;19.60;;;;;;;;;;5082046;28;20257;-78
2022/12/12 03:37:40;;;;;;;94.57;21.37;;;;;;;;;;5077850;28;20230;-78
2022/12/12 03:40:09;;;;;;;59.00;21.73;;;;;;;;;;5081409;28;20229;-77
2022/12/12 03:42:41;;;;;;;67.10;23.10;;;;;;;;;;5089607;28;20233;-77
2022/12/12 03:45:11;;;;;;;70.07;21.07;;;;;;;;;;5071879;28;20200;-77
2022/12/12 03:47:46;;;;;;;53.00;19.70;;;;;;;;;;5080769;28;20245;-78
2022/12/12 03:50:17;;;;;;;82.10;17.93;;;;;;;;;;5083438;28;20621;-77
2022/12/12 03:52:46;;;;;;;74.90;21.47;;;;;;;;;;5072162;28;20793;-78
2022/12/12 03:55:16;;;;;;;55.13;20.33;;;;;;;;;;5072307;28;20206;-78
2022/12/12 03:57:46;;;;;;;56.07;20.77;;;;;;;;;;5081938;28;20199;-78
2022/12/12 04:00:14;;;;;;;120.30;21.60;;;;;;;;;;5074795;28;20230;-77
2022/12/12 04:02:50;;;;;;;73.30;18.03;;;;;;;;;;5079956;28;20779;-78
2022/12/12 04:05:20;;;;;;;45.03;19.40;;;;;;;;;;5072046;28;20709;-77
2022/12/12 04:07:52;;;;;;;50.83;19.23;;;;;;;;;;5071964;28;20232;-78
2022/12/12 04:13:12;;;;;;;153.60;23.43;;;;;;;;;;5080065;28;20206;-78
2022/12/12 04:15:53;;;;;;;54.97;20.33;;;;;;;;;;5075529;28;20205;-78
2022/12/12 04:18:26;;;;;;;62.10;20.20;;;;;;;;;;5090586;28;20251;-78
2022/12/12 04:23:49;;;;;;;37.33;17.63;;;;;;;;;;5084345;28;20199;-77
2022/12/12 04:29:08;;;;;;;56.70;18.83;;;;;;;;;;5087917;28;20217;-78
2022/12/12 04:31:37;;;;;;;77.90;19.83;;;;;;;;;;5076099;28;20236;-77
2022/12/12 04:34:08;;;;;;;47.80;19.20;;;;;;;;;;5074929;28;20207;-78
2022/12/12 04:36:36;;;;;;;74.77;19.23;;;;;;;;;;5081461;28;20222;-78
2022/12/12 04:39:04;;;;;;;57.50;18.47;;;;;;;;;;5095901;28;20602;-78
2022/12/12 04:41:33;;;;;;;48.57;17.83;;;;;;;;;;5095613;28;20251;-78
2022/12/12 04:44:02;;;;;;;37.13;16.13;;;;;;;;;;5079997;28;20207;-77
2022/12/12 04:46:32;;;;;;;53.70;19.97;;;;;;;;;;5079467;28;20249;-77
2022/12/12 04:49:00;;;;;;;40.10;17.83;;;;;;;;;;5083910;28;20207;-77
2022/12/12 04:51:30;;;;;;;69.60;18.30;;;;;;;;;;5074680;28;20252;-77
2022/12/12 04:54:00;;;;;;;33.87;16.93;;;;;;;;;;5074952;28;20637;-78
2022/12/12 04:56:30;;;;;;;55.20;18.07;;;;;;;;;;5074955;28;20231;-78
2022/12/12 04:58:58;;;;;;;52.53;18.77;;;;;;;;;;5083586;28;20205;-77
2022/12/12 05:01:30;;;;;;;100.23;23.63;;;;;;;;;;5094791;28;20277;-77
2022/12/12 05:03:59;;;;;;;82.00;22.57;;;;;;;;;;5092539;28;20236;-78
2022/12/12 05:06:31;;;;;;;80.13;18.50;;;;;;;;;;5094834;28;20733;-78
2022/12/12 05:08:58;;;;;;;35.90;16.40;;;;;;;;;;5085741;28;20273;-77
2022/12/12 05:11:26;;;;;;;61.47;19.07;;;;;;;;;;5091770;28;20673;-77
2022/12/12 05:13:53;;;;;;;47.40;20.97;;;;;;;;;;5084288;28;20628;-77
2022/12/12 05:16:22;;;;;;;43.20;17.73;;;;;;;;;;5075263;28;20256;-78
2022/12/12 05:18:49;;;;;;;50.13;17.30;;;;;;;;;;5077856;28;20301;-78
2022/12/12 05:21:16;;;;;;;54.33;17.17;;;;;;;;;;5083563;28;20231;-78
2022/12/12 05:23:45;;;;;;;48.50;15.53;;;;;;;;;;5088643;28;20199;-78
2022/12/12 05:26:17;;;;;;;39.40;15.90;;;;;;;;;;5080007;28;20752;-78
2022/12/12 05:28:44;;;;;;;33.70;15.13;;;;;;;;;;5087436;28;20196;-77
2022/12/12 05:31:11;;;;;;;33.50;15.23;;;;;;;;;;5078228;28;20955;-77
2022/12/12 05:33:39;;;;;;;36.37;15.27;;;;;;;;;;5085930;28;20234;-77
2022/12/12 05:36:06;;;;;;;40.50;15.33;;;;;;;;;;5084867;28;20199;-77
2022/12/12 05:38:33;;;;;;;35.93;15.20;;;;;;;;;;5090775;28;20245;-77
2022/12/12 05:41:02;;;;;;;43.50;15.37;;;;;;;;;;5080921;28;20660;-78
2022/12/12 05:43:29;;;;;;;38.83;15.90;;;;;;;;;;5074218;28;20239;-77
2022/12/12 05:45:56;;;;;;;35.03;15.97;;;;;;;;;;5073800;28;20695;-78
2022/12/12 05:48:23;;;;;;;52.80;17.90;;;;;;;;;;5087357;28;20224;-77
2022/12/12 05:50:51;;;;;;;38.33;16.20;;;;;;;;;;5086964;28;20251;-78
2022/12/12 05:53:18;;;;;;;33.87;16.53;;;;;;;;;;5083113;28;20223;-78
2022/12/12 05:55:45;;;;;;;41.13;16.50;;;;;;;;;;5083817;28;20695;-79
2022/12/12 05:58:14;;;;;;;34.47;16.17;;;;;;;;;;5078122;28;20192;-78
2022/12/12 06:00:41;;;;;;;50.70;15.67;;;;;;;;;;5086818;28;20196;-78
2022/12/12 06:03:08;;;;;;;56.93;15.77;;;;;;;;;;5084819;28;20241;-80
2022/12/12 06:05:36;;;;;;;69.67;25.53;;;;;;;;;;5081292;28;20230;-79
2022/12/12 06:08:03;;;;;;;44.23;19.80;;;;;;;;;;5075464;28;20729;-79
2022/12/12 06:10:30;;;;;;;70.03;16.10;;;;;;;;;;5073096;28;20230;-80
2022/12/12 06:12:57;;;;;;;55.50;16.30;;;;;;;;;;5072721;28;20196;-78
2022/12/12 06:15:26;;;;;;;34.67;15.23;;;;;;;;;;5073286;28;20674;-79
2022/12/12 06:17:53;;;;;;;50.00;15.23;;;;;;;;;;5072788;28;20267;-80
2022/12/12 06:20:21;;;;;;;33.30;15.37;;;;;;;;;;5073091;28;20200;-81
2022/12/12 06:22:48;;;;;;;58.33;16.73;;;;;;;;;;5072579;28;20203;-79
2022/12/12 06:25:16;;;;;;;32.20;14.53;;;;;;;;;;5072944;28;20241;-78
2022/12/12 06:27:44;;;;;;;24.47;12.00;;;;;;;;;;5072171;28;20217;-77
2022/12/12 06:30:11;;;;;;;29.30;11.43;;;;;;;;;;5071406;28;20269;-80
2022/12/12 06:32:40;;;;;;;23.93;11.83;;;;;;;;;;5072609;28;20237;-80
2022/12/12 06:35:08;;;;;;;25.67;12.40;;;;;;;;;;5072425;28;20215;-81
2022/12/12 06:37:35;;;;;;;24.23;11.83;;;;;;;;;;5072708;28;20199;-82
2022/12/12 06:40:03;;;;;;;99.07;47.40;;;;;;;;;;5071732;28;20230;-82
2022/12/12 06:42:30;;;;;;;61.70;32.63;;;;;;;;;;5073145;28;20227;-81
2022/12/12 06:44:57;;;;;;;26.17;13.47;;;;;;;;;;5072744;28;20241;-81
2022/12/12 06:47:24;;;;;;;37.57;20.70;;;;;;;;;;5075075;28;20709;-80
2022/12/12 06:49:53;;;;;;;24.23;13.23;;;;;;;;;;5087141;28;20238;-79
2022/12/12 06:52:20;;;;;;;28.33;14.60;;;;;;;;;;5071800;28;20196;-79
2022/12/12 06:54:47;;;;;;;27.57;12.37;;;;;;;;;;5074791;28;20235;-80
2022/12/12 06:57:14;;;;;;;27.87;13.80;;;;;;;;;;5092188;28;20195;-79
2022/12/12 06:59:42;;;;;;;33.83;17.83;;;;;;;;;;5072110;28;20204;-78
2022/12/12 07:02:10;;;;;;;25.53;11.87;;;;;;;;;;5071847;28;20224;-80
2022/12/12 07:04:38;;;;;;;23.93;11.23;;;;;;;;;;5071527;28;20671;-80
2022/12/12 07:07:07;;;;;;;22.37;10.93;;;;;;;;;;5072257;28;20592;-77
2022/12/12 07:09:34;;;;;;;28.00;16.27;;;;;;;;;;5071057;28;20750;-79
2022/12/12 07:12:01;;;;;;;21.43;12.27;;;;;;;;;;5072209;28;20226;-79
2022/12/12 07:14:28;;;;;;;20.40;10.03;;;;;;;;;;5080605;28;20277;-80
2022/12/12 07:16:56;;;;;;;30.67;14.70;;;;;;;;;;5072238;28;20206;-79
2022/12/12 07:19:24;;;;;;;52.00;32.07;;;;;;;;;;5072443;28;20196;-78
2022/12/12 07:21:51;;;;;;;24.07;13.27;;;;;;;;;;5072560;28;20206;-79
2022/12/12 07:24:20;;;;;;;21.43;12.50;;;;;;;;;;5071869;28;20199;-79
2022/12/12 07:26:47;;;;;;;23.70;11.90;;;;;;;;;;5071796;28;20226;-78
2022/12/12 07:29:15;;;;;;;18.47;10.17;;;;;;;;;;5071308;28;20571;-80
2022/12/12 07:31:42;;;;;;;24.07;11.70;;;;;;;;;;5071352;28;20911;-79
2022/12/12 07:34:09;;;;;;;23.40;12.47;;;;;;;;;;5086696;28;20252;-79
2022/12/12 07:36:37;;;;;;;19.80;10.40;;;;;;;;;;5072046;28;20260;-80
2022/12/12 07:39:04;;;;;;;20.63;11.07;;;;;;;;;;5075955;28;20257;-79
2022/12/12 07:41:33;;;;;;;18.73;9.87;;;;;;;;;;5080871;28;20259;-79
2022/12/12 07:44:00;;;;;;;29.93;15.37;;;;;;;;;;5089981;28;20627;-79
2022/12/12 07:46:27;;;;;;;23.27;12.63;;;;;;;;;;5083531;28;20237;-79
2022/12/12 07:48:55;;;;;;;26.20;13.63;;;;;;;;;;5075347;28;20287;-79
2022/12/12 07:51:22;;;;;;;20.97;11.23;;;;;;;;;;5072018;28;20203;-78
2022/12/12 07:53:50;;;;;;;19.73;10.57;;;;;;;;;;5071155;28;20748;-79
2022/12/12 07:56:18;;;;;;;33.07;18.63;;;;;;;;;;5071874;28;20300;-79
2022/12/12 07:58:47;;;;;;;24.63;14.17;;;;;;;;;;5070968;28;20696;-79
2022/12/12 08:01:15;;;;;;;27.90;13.20;;;;;;;;;;5071682;28;20239;-78
2022/12/12 08:03:42;;;;;;;31.43;15.10;;;;;;;;;;5094240;28;20230;-78
2022/12/12 08:06:09;;;;;;;26.90;13.77;;;;;;;;;;5096472;28;20194;-78
2022/12/12 08:08:36;;;;;;;28.80;12.93;;;;;;;;;;5095785;28;20269;-78
2022/12/12 08:11:07;;;;;;;30.37;14.37;;;;;;;;;;5096337;28;20230;-79
2022/12/12 08:13:35;;;;;;;23.63;13.40;;;;;;;;;;5096470;28;20661;-78
2022/12/12 08:16:05;;;;;;;22.67;11.30;;;;;;;;;;5095935;28;20206;-78
2022/12/12 08:18:33;;;;;;;20.23;10.63;;;;;;;;;;5077757;28;20198;-78
2022/12/12 08:21:00;;;;;;;24.33;10.90;;;;;;;;;;5075363;28;20206;-78
2022/12/12 08:23:27;;;;;;;19.67;10.57;;;;;;;;;;5075784;28;20203;-78
2022/12/12 08:25:54;;;;;;;21.37;12.90;;;;;;;;;;5075596;28;20230;-78
2022/12/12 08:28:21;;;;;;;21.90;12.30;;;;;;;;;;5075843;28;20259;-79
2022/12/12 08:30:50;;;;;;;18.83;10.47;;;;;;;;;;5075325;28;20718;-79
2022/12/12 08:33:19;;;;;;;24.10;14.37;;;;;;;;;;5085575;28;20648;-77
2022/12/12 08:35:46;;;;;;;21.07;11.97;;;;;;;;;;5095906;28;20215;-78
2022/12/12 08:38:14;;;;;;;22.00;12.27;;;;;;;;;;5095931;28;20617;-78
2022/12/12 08:40:41;;;;;;;22.63;12.23;;;;;;;;;;5095577;28;20251;-78
2022/12/12 08:43:08;;;;;;;26.60;13.20;;;;;;;;;;5095644;28;20198;-78
2022/12/12 08:45:36;;;;;;;31.73;15.90;;;;;;;;;;5095150;28;20573;-78
2022/12/12 08:48:03;;;;;;;38.37;18.50;;;;;;;;;;5094605;28;20317;-78
2022/12/12 08:50:32;;;;;;;43.37;19.10;;;;;;;;;;5095577;28;20241;-78
2022/12/12 08:52:59;;;;;;;44.37;19.67;;;;;;;;;;5095114;28;20201;-79
2022/12/12 08:55:26;;;;;;;52.90;20.93;;;;;;;;;;5095338;28;20240;-78
2022/12/12 08:57:54;;;;;;;53.03;22.50;;;;;;;;;;5095692;28;20247;-79
2022/12/12 09:00:21;;;;;;;53.13;21.67;;;;;;;;;;5095227;28;20688;-79
2022/12/12 09:02:48;;;;;;;61.33;22.20;;;;;;;;;;5094645;28;20235;-79
2022/12/12 09:05:16;;;;;;;53.03;20.57;;;;;;;;;;5094119;28;20237;-78
2022/12/12 09:07:44;;;;;;;43.97;21.20;;;;;;;;;;5093418;28;20224;-78
2022/12/12 09:10:12;;;;;;;40.00;18.27;;;;;;;;;;5087459;28;20244;-78
2022/12/12 09:12:39;;;;;;;47.30;19.53;;;;;;;;;;5095079;28;20216;-78
2022/12/12 09:15:07;;;;;;;44.20;19.70;;;;;;;;;;5093618;28;20249;-78
2022/12/12 09:17:35;;;;;;;44.83;19.10;;;;;;;;;;5094651;28;20195;-78
2022/12/12 09:20:02;;;;;;;38.73;18.53;;;;;;;;;;5092197;28;20226;-78
2022/12/12 09:22:30;;;;;;;43.77;20.50;;;;;;;;;;5094659;28;20206;-78
2022/12/12 09:24:59;;;;;;;41.47;20.40;;;;;;;;;;5094612;28;20198;-78
2022/12/12 09:27:26;;;;;;;47.73;21.57;;;;;;;;;;5094527;28;20307;-78
2022/12/12 09:29:53;;;;;;;40.63;17.83;;;;;;;;;;5094859;28;20233;-78
2022/12/12 09:32:20;;;;;;;47.00;21.30;;;;;;;;;;5094474;28;20670;-78
2022/12/12 09:34:48;;;;;;;47.27;22.40;;;;;;;;;;5079095;28;20206;-78
2022/12/12 09:37:15;;;;;;;45.70;22.50;;;;;;;;;;5085566;28;20247;-79
2022/12/12 09:39:43;;;;;;;49.83;24.57;;;;;;;;;;5094092;28;20201;-78
2022/12/12 09:42:18;;;;;;;50.57;25.23;;;;;;;;;;5094326;28;20617;-78
2022/12/12 09:44:46;;;;;;;53.13;26.57;;;;;;;;;;5094762;28;20276;-78
2022/12/12 09:47:16;;;;;;;53.43;26.53;;;;;;;;;;5094251;28;20731;-78
2022/12/12 09:49:46;;;;;;;53.53;26.70;;;;;;;;;;5094149;28;20241;-79
2022/12/12 09:52:14;;;;;;;56.23;29.47;;;;;;;;;;5094341;28;20240;-78
2022/12/12 09:54:42;;;;;;;57.10;28.67;;;;;;;;;;5093927;28;20243;-78
2022/12/12 09:57:18;;;;;;;52.87;27.07;;;;;;;;;;5094732;28;20295;-78
2022/12/12 09:59:49;;;;;;;56.60;29.37;;;;;;;;;;5094017;28;20199;-78
2022/12/12 10:02:28;;;;;;;62.40;30.93;;;;;;;;;;5093954;28;20287;-78
2022/12/12 10:05:00;;;;;;;57.00;29.63;;;;;;;;;;5085590;28;20245;-78
2022/12/12 10:07:30;;;;;;;56.57;30.17;;;;;;;;;;5093818;28;20273;-78
2022/12/12 10:10:02;;;;;;;55.27;28.87;;;;;;;;;;5094091;28;20198;-78
2022/12/12 10:12:34;;;;;;;57.17;29.53;;;;;;;;;;5094310;28;20234;-78
2022/12/12 10:15:03;;;;;;;58.50;31.00;;;;;;;;;;5093732;28;20241;-78
2022/12/12 10:17:32;;;;;;;54.93;28.90;;;;;;;;;;5093979;28;20226;-78
2022/12/12 10:20:00;;;;;;;54.97;29.67;;;;;;;;;;5094032;28;20205;-78
2022/12/12 10:22:31;;;;;;;55.57;29.93;;;;;;;;;;5093624;28;20238;-78
2022/12/12 10:25:00;;;;;;;58.17;31.30;;;;;;;;;;5078529;28;20268;-79
2022/12/12 10:27:28;;;;;;;59.83;31.33;;;;;;;;;;5073076;28;20680;-79
2022/12/12 10:29:57;;;;;;;58.17;31.90;;;;;;;;;;5073238;28;20214;-79
2022/12/12 10:32:33;;;;;;;61.73;32.43;;;;;;;;;;5073268;28;20733;-78
2022/12/12 10:35:07;;;;;;;66.43;33.60;;;;;;;;;;5073388;28;20206;-79
2022/12/12 10:37:39;;;;;;;54.47;30.63;;;;;;;;;;5072978;28;20238;-78
2022/12/12 10:40:26;;;;;;;58.57;31.53;;;;;;;;;;5072898;28;20202;-79
2022/12/12 10:42:55;;;;;;;53.60;27.10;;;;;;;;;;5077432;28;20230;-78
2022/12/12 10:45:37;;;;;;;52.47;28.77;;;;;;;;;;5072842;28;20237;-79
2022/12/12 10:48:06;;;;;;;56.23;30.33;;;;;;;;;;5074484;28;20310;-79
2022/12/12 10:50:35;;;;;;;56.03;31.00;;;;;;;;;;5073014;28;20605;-78
2022/12/12 10:53:03;;;;;;;57.50;30.60;;;;;;;;;;5072642;28;20257;-79
2022/12/12 10:55:36;;;;;;;50.30;28.40;;;;;;;;;;5073045;28;20202;-79
2022/12/12 10:58:04;;;;;;;53.33;31.03;;;;;;;;;;5072488;28;20737;-79
2022/12/12 11:00:32;;;;;;;52.03;29.90;;;;;;;;;;5088603;28;20248;-79
2022/12/12 11:03:00;;;;;;;46.40;28.10;;;;;;;;;;5082739;28;20693;-79
2022/12/12 11:05:30;;;;;;;45.93;27.30;;;;;;;;;;5072560;28;20203;-79
2022/12/12 11:08:02;;;;;;;41.13;26.73;;;;;;;;;;5072679;28;20307;-79
2022/12/12 11:10:30;;;;;;;46.60;28.03;;;;;;;;;;5072621;28;20238;-80
2022/12/12 11:12:58;;;;;;;41.07;25.23;;;;;;;;;;5072242;28;20561;-79
2022/12/12 11:15:44;;;;;;;38.17;24.07;;;;;;;;;;5073503;28;20235;-79
2022/12/12 11:18:15;;;;;;;38.27;24.40;;;;;;;;;;5076368;28;20682;-79
2022/12/12 11:20:48;;;;;;;36.23;23.47;;;;;;;;;;5072665;28;20233;-79
2022/12/12 11:23:18;;;;;;;38.20;23.23;;;;;;;;;;5072287;28;20260;-79
2022/12/12 11:25:45;;;;;;;37.40;25.27;;;;;;;;;;5072783;28;20628;-79
2022/12/12 11:28:17;;;;;;;35.93;23.27;;;;;;;;;;5072004;28;20261;-79
2022/12/12 11:30:44;;;;;;;37.60;23.83;;;;;;;;;;5072489;28;20250;-79
2022/12/12 11:33:18;;;;;;;35.93;23.93;;;;;;;;;;5072710;28;20241;-79
2022/12/12 11:35:46;;;;;;;35.67;22.57;;;;;;;;;;5072139;28;20690;-79
2022/12/12 11:38:17;;;;;;;37.27;24.67;;;;;;;;;;5090782;28;20245;-79
2022/12/12 11:40:44;;;;;;;34.67;22.73;;;;;;;;;;5092560;28;20197;-79
2022/12/12 11:43:19;;;;;;;39.87;23.50;;;;;;;;;;5092086;28;20610;-79
2022/12/12 11:45:58;;;;;;;37.30;23.37;;;;;;;;;;5092472;28;20285;-79
2022/12/12 11:48:43;;;;;;;35.53;23.17;;;;;;;;;;5087153;28;20256;-79
2022/12/12 11:51:11;;;;;;;38.33;23.00;;;;;;;;;;5071764;28;20265;-78
2022/12/12 11:53:40;;;;;;;38.73;24.13;;;;;;;;;;5072613;28;20632;-79
2022/12/12 11:56:14;;;;;;;37.97;24.17;;;;;;;;;;5072090;28;20197;-79
2022/12/12 11:58:46;;;;;;;35.33;23.33;;;;;;;;;;5072176;28;20585;-79
2022/12/12 12:01:18;;;;;;;35.50;23.87;;;;;;;;;;5079183;28;20737;-79
2022/12/12 12:03:53;;;;;;;37.50;24.20;;;;;;;;;;5092025;28;20247;-79
2022/12/12 12:06:29;;;;;;;36.20;22.97;;;;;;;;;;5092400;28;20198;-79
2022/12/12 12:09:06;;;;;;;32.83;22.33;;;;;;;;;;5092119;28;20261;-79
2022/12/12 12:11:39;;;;;;;36.13;24.17;;;;;;;;;;5092238;28;20225;-79
2022/12/12 12:14:14;;;;;;;34.07;23.67;;;;;;;;;;5092438;28;20230;-79
2022/12/12 12:16:46;;;;;;;36.10;23.60;;;;;;;;;;5092332;28;20206;-79
2022/12/12 12:19:17;;;;;;;33.03;22.83;;;;;;;;;;5085151;28;20625;-79
2022/12/12 12:21:51;;;;;;;31.60;22.33;;;;;;;;;;5071801;28;20237;-79
2022/12/12 12:24:34;;;;;;;34.27;23.73;;;;;;;;;;5072013;28;20241;-78
2022/12/12 12:27:06;;;;;;;35.50;22.50;;;;;;;;;;5072269;28;20238;-78
2022/12/12 12:29:45;;;;;;;33.90;23.13;;;;;;;;;;5071924;28;20254;-78
2022/12/12 12:32:16;;;;;;;31.87;21.50;;;;;;;;;;5072009;28;20659;-78
2022/12/12 12:34:48;;;;;;;30.90;20.93;;;;;;;;;;5071543;28;20226;-79
2022/12/12 12:37:22;;;;;;;33.63;21.63;;;;;;;;;;5082893;28;20232;-78
2022/12/12 12:39:56;;;;;;;28.60;20.27;;;;;;;;;;5092095;28;20279;-79
2022/12/12 12:42:29;;;;;;;32.03;20.60;;;;;;;;;;5091920;28;20198;-78
2022/12/12 12:45:03;;;;;;;28.20;19.80;;;;;;;;;;5092179;28;20291;-78
2022/12/12 12:47:37;;;;;;;29.13;19.70;;;;;;;;;;5091768;28;20200;-78
2022/12/12 12:50:06;;;;;;;29.77;19.67;;;;;;;;;;5093585;28;20698;-78
2022/12/12 12:52:37;;;;;;;28.77;19.30;;;;;;;;;;5081024;28;20227;-77
2022/12/12 12:55:04;;;;;;;29.77;20.07;;;;;;;;;;5075268;28;20199;-76
2022/12/12 12:57:35;;;;;;;27.53;18.83;;;;;;;;;;5074017;28;20215;-76
2022/12/12 13:00:05;;;;;;;24.90;17.87;;;;;;;;;;5075153;28;20199;-76
2022/12/12 13:02:41;;;;;;;28.20;18.60;;;;;;;;;;5074802;28;20239;-76
2022/12/12 13:05:12;;;;;;;26.77;18.07;;;;;;;;;;5086694;28;20197;-76
2022/12/12 13:07:43;;;;;;;28.27;18.80;;;;;;;;;;5095670;28;20235;-76
2022/12/12 13:10:17;;;;;;;24.63;17.33;;;;;;;;;;5095305;28;20257;-76
2022/12/12 13:12:47;;;;;;;25.23;16.90;;;;;;;;;;5095029;28;20660;-76
2022/12/12 13:15:17;;;;;;;26.03;17.67;;;;;;;;;;5095324;28;20782;-76
2022/12/12 13:17:48;;;;;;;25.60;17.00;;;;;;;;;;5083066;28;20199;-76
2022/12/12 13:20:16;;;;;;;26.77;18.23;;;;;;;;;;5074770;28;20231;-77
2022/12/12 13:22:49;;;;;;;25.93;17.43;;;;;;;;;;5074722;28;20245;-76
2022/12/12 13:25:19;;;;;;;27.30;18.73;;;;;;;;;;5075726;28;20199;-78
2022/12/12 13:27:48;;;;;;;25.53;17.60;;;;;;;;;;5094922;28;20237;-78
2022/12/12 13:30:20;;;;;;;25.60;17.53;;;;;;;;;;5094427;28;20227;-78
2022/12/12 13:33:05;;;;;;;25.23;16.13;;;;;;;;;;5094736;28;20201;-78
2022/12/12 13:35:34;;;;;;;23.70;16.37;;;;;;;;;;5076091;28;20203;-78
2022/12/12 13:38:04;;;;;;;23.57;16.50;;;;;;;;;;5092024;28;20253;-79
2022/12/12 13:40:32;;;;;;;22.20;15.23;;;;;;;;;;5094664;28;20201;-78
2022/12/12 13:43:00;;;;;;;23.77;16.63;;;;;;;;;;5094154;28;20206;-78
2022/12/12 13:45:36;;;;;;;22.97;15.53;;;;;;;;;;5094236;28;20230;-78
2022/12/12 13:48:04;;;;;;;23.63;16.90;;;;;;;;;;5094373;28;20286;-78
2022/12/12 13:50:32;;;;;;;23.43;15.93;;;;;;;;;;5093211;28;20247;-78
2022/12/12 13:53:20;;;;;;;22.53;15.77;;;;;;;;;;5094014;28;20248;-79
2022/12/12 13:55:48;;;;;;;22.60;15.87;;;;;;;;;;5094265;28;20198;-79
2022/12/12 13:58:33;;;;;;;22.70;15.43;;;;;;;;;;5093872;28;20200;-78
2022/12/12 14:01:20;;;;;;;21.10;14.63;;;;;;;;;;5077913;28;20230;-78
2022/12/12 14:03:47;;;;;;;22.30;14.43;;;;;;;;;;5073965;28;20690;-78
2022/12/12 14:06:19;;;;;;;21.93;14.30;;;;;;;;;;5090394;28;20198;-79
2022/12/12 14:08:52;;;;;;;22.80;15.37;;;;;;;;;;5093167;28;20209;-79
2022/12/12 14:11:26;;;;;;;22.17;14.80;;;;;;;;;;5093695;28;20198;-79
2022/12/12 14:14:02;;;;;;;20.23;14.13;;;;;;;;;;5093844;28;20223;-78
2022/12/12 14:16:32;;;;;;;24.00;14.70;;;;;;;;;;5094049;28;20197;-79
2022/12/12 14:19:02;;;;;;;23.73;15.13;;;;;;;;;;5094158;28;20198;-79
2022/12/12 14:21:43;;;;;;;24.50;15.53;;;;;;;;;;5093360;28;20666;-79
2022/12/12 14:24:29;;;;;;;24.67;16.43;;;;;;;;;;5093948;28;20550;-78
2022/12/12 14:26:58;;;;;;;23.30;15.10;;;;;;;;;;5074647;28;20206;-78
2022/12/12 14:29:27;;;;;;;23.17;14.40;;;;;;;;;;5077928;28;20677;-78
2022/12/12 14:32:00;;;;;;;23.60;15.37;;;;;;;;;;5093877;28;20206;-79
2022/12/12 14:34:32;;;;;;;22.30;15.00;;;;;;;;;;5083135;28;20302;-79
2022/12/12 14:37:13;;;;;;;24.40;15.17;;;;;;;;;;5093599;28;20209;-79
2022/12/12 14:40:00;;;;;;;26.27;15.33;;;;;;;;;;5093379;28;20319;-79
2022/12/12 14:42:37;;;;;;;21.13;14.90;;;;;;;;;;5093254;28;20259;-79
2022/12/12 14:45:19;;;;;;;18.47;11.77;;;;;;;;;;5093364;28;20242;-78
2022/12/12 14:47:47;;;;;;;21.63;14.40;;;;;;;;;;5093126;28;20297;-78